sensor_id;sensor_type;location;lat;lon;timestamp;temperature;humidity
12426;DHT22;6277;49.824;9.562;2023-04-03T00:00:25;5.90;68.10
12426;DHT22;6277;49.824;9.562;2023-04-03T00:02:51;5.90;68.20
12426;DHT22;6277;49.824;9.562;2023-04-03T00:05:16;5.80;68.30
12426;DHT22;6277;49.824;9.562;2023-04-03T00:07:42;5.80;68.30
12426;DHT22;6277;49.824;9.562;2023-04-03T00:10:08;5.70;68.40
12426;DHT22;6277;49.824;9.562;2023-04-03T00:12:34;5.70;68.50
12426;DHT22;6277;49.824;9.562;2023-04-03T00:14:59;5.70;68.60
12426;DHT22;6277;49.824;9.562;2023-04-03T00:17:25;5.70;68.70
12426;DHT22;6277;49.824;9.562;2023-04-03T00:19:50;5.60;68.80
12426;DHT22;6277;49.824;9.562;2023-04-03T00:22:16;5.60;68.90
12426;DHT22;6277;49.824;9.562;2023-04-03T00:24:41;5.70;69.00
12426;DHT22;6277;49.824;9.562;2023-04-03T00:27:07;5.70;69.10
12426;DHT22;6277;49.824;9.562;2023-04-03T00:29:33;5.70;69.30
12426;DHT22;6277;49.824;9.562;2023-04-03T00:31:58;5.70;69.20
12426;DHT22;6277;49.824;9.562;2023-04-03T00:34:25;5.80;69.40
12426;DHT22;6277;49.824;9.562;2023-04-03T00:36:50;5.80;69.40
12426;DHT22;6277;49.824;9.562;2023-04-03T00:39:16;5.90;69.50
12426;DHT22;6277;49.824;9.562;2023-04-03T00:41:42;5.90;69.50
12426;DHT22;6277;49.824;9.562;2023-04-03T00:46:59;6.00;69.30
12426;DHT22;6277;49.824;9.562;2023-04-03T00:49:25;6.00;69.50
12426;DHT22;6277;49.824;9.562;2023-04-03T00:51:52;6.00;69.50
12426;DHT22;6277;49.824;9.562;2023-04-03T00:54:17;6.00;69.50
12426;DHT22;6277;49.824;9.562;2023-04-03T00:56:44;6.00;69.50
12426;DHT22;6277;49.824;9.562;2023-04-03T00:59:16;6.10;69.60
12426;DHT22;6277;49.824;9.562;2023-04-03T01:01:43;6.10;69.60
12426;DHT22;6277;49.824;9.562;2023-04-03T01:04:31;6.10;69.20
12426;DHT22;6277;49.824;9.562;2023-04-03T01:07:00;6.20;69.30
12426;DHT22;6277;49.824;9.562;2023-04-03T01:09:27;6.20;69.60
12426;DHT22;6277;49.824;9.562;2023-04-03T01:11:53;6.30;69.70
12426;DHT22;6277;49.824;9.562;2023-04-03T01:14:19;6.30;69.70
12426;DHT22;6277;49.824;9.562;2023-04-03T01:16:54;6.30;69.70
12426;DHT22;6277;49.824;9.562;2023-04-03T01:19:21;6.30;69.40
12426;DHT22;6277;49.824;9.562;2023-04-03T01:22:01;6.40;69.70
12426;DHT22;6277;49.824;9.562;2023-04-03T01:24:34;6.40;69.50
12426;DHT22;6277;49.824;9.562;2023-04-03T01:27:01;6.40;69.70
12426;DHT22;6277;49.824;9.562;2023-04-03T01:29:27;6.50;69.80
12426;DHT22;6277;49.824;9.562;2023-04-03T01:31:56;6.50;69.80
12426;DHT22;6277;49.824;9.562;2023-04-03T01:34:22;6.50;69.80
12426;DHT22;6277;49.824;9.562;2023-04-03T01:36:48;6.60;69.80
12426;DHT22;6277;49.824;9.562;2023-04-03T01:39:14;6.60;69.80
12426;DHT22;6277;49.824;9.562;2023-04-03T01:41:39;6.60;69.70
12426;DHT22;6277;49.824;9.562;2023-04-03T01:44:05;6.70;69.80
12426;DHT22;6277;49.824;9.562;2023-04-03T01:46:31;6.70;69.70
12426;DHT22;6277;49.824;9.562;2023-04-03T01:48:57;6.70;69.60
12426;DHT22;6277;49.824;9.562;2023-04-03T01:51:22;6.80;69.60
12426;DHT22;6277;49.824;9.562;2023-04-03T01:53:48;6.80;69.60
12426;DHT22;6277;49.824;9.562;2023-04-03T01:56:13;6.80;69.60
12426;DHT22;6277;49.824;9.562;2023-04-03T01:58:39;6.80;69.60
12426;DHT22;6277;49.824;9.562;2023-04-03T02:01:04;6.80;69.60
12426;DHT22;6277;49.824;9.562;2023-04-03T02:03:30;6.80;69.60
12426;DHT22;6277;49.824;9.562;2023-04-03T02:05:56;6.90;69.60
12426;DHT22;6277;49.824;9.562;2023-04-03T02:08:22;6.90;70.20
12426;DHT22;6277;49.824;9.562;2023-04-03T02:10:49;6.90;69.60
12426;DHT22;6277;49.824;9.562;2023-04-03T02:13:15;6.90;69.60
12426;DHT22;6277;49.824;9.562;2023-04-03T02:15:41;6.90;69.50
12426;DHT22;6277;49.824;9.562;2023-04-03T02:18:07;6.90;69.50
12426;DHT22;6277;49.824;9.562;2023-04-03T02:20:32;6.90;69.40
12426;DHT22;6277;49.824;9.562;2023-04-03T02:22:58;7.00;69.50
12426;DHT22;6277;49.824;9.562;2023-04-03T02:25:24;7.00;69.50
12426;DHT22;6277;49.824;9.562;2023-04-03T02:27:50;7.00;69.50
12426;DHT22;6277;49.824;9.562;2023-04-03T02:30:15;7.00;69.50
12426;DHT22;6277;49.824;9.562;2023-04-03T02:32:42;7.00;69.50
12426;DHT22;6277;49.824;9.562;2023-04-03T02:35:08;7.00;69.50
12426;DHT22;6277;49.824;9.562;2023-04-03T02:37:34;7.00;69.50
12426;DHT22;6277;49.824;9.562;2023-04-03T02:40:00;7.00;69.50
12426;DHT22;6277;49.824;9.562;2023-04-03T02:42:25;7.10;69.50
12426;DHT22;6277;49.824;9.562;2023-04-03T02:44:51;7.10;69.60
12426;DHT22;6277;49.824;9.562;2023-04-03T02:47:16;7.10;69.60
12426;DHT22;6277;49.824;9.562;2023-04-03T02:49:42;7.10;69.50
12426;DHT22;6277;49.824;9.562;2023-04-03T02:52:10;7.10;69.50
12426;DHT22;6277;49.824;9.562;2023-04-03T02:54:35;7.10;69.60
12426;DHT22;6277;49.824;9.562;2023-04-03T02:57:01;7.10;69.50
12426;DHT22;6277;49.824;9.562;2023-04-03T02:59:27;7.10;69.50
12426;DHT22;6277;49.824;9.562;2023-04-03T03:01:52;7.10;69.50
12426;DHT22;6277;49.824;9.562;2023-04-03T03:04:18;7.10;69.40
12426;DHT22;6277;49.824;9.562;2023-04-03T03:06:44;7.10;69.50
12426;DHT22;6277;49.824;9.562;2023-04-03T03:09:09;7.00;69.40
12426;DHT22;6277;49.824;9.562;2023-04-03T03:11:35;7.00;69.50
12426;DHT22;6277;49.824;9.562;2023-04-03T03:14:01;7.00;69.50
12426;DHT22;6277;49.824;9.562;2023-04-03T03:16:26;7.00;69.60
12426;DHT22;6277;49.824;9.562;2023-04-03T03:18:52;7.00;69.70
12426;DHT22;6277;49.824;9.562;2023-04-03T03:21:17;7.00;69.70
12426;DHT22;6277;49.824;9.562;2023-04-03T03:23:43;6.90;69.80
12426;DHT22;6277;49.824;9.562;2023-04-03T03:26:10;6.90;69.70
12426;DHT22;6277;49.824;9.562;2023-04-03T03:28:37;7.00;69.80
12426;DHT22;6277;49.824;9.562;2023-04-03T03:31:03;7.00;69.90
12426;DHT22;6277;49.824;9.562;2023-04-03T03:33:29;6.90;70.50
12426;DHT22;6277;49.824;9.562;2023-04-03T03:35:55;6.90;69.90
12426;DHT22;6277;49.824;9.562;2023-04-03T03:38:21;6.90;69.90
12426;DHT22;6277;49.824;9.562;2023-04-03T03:40:48;6.90;70.00
12426;DHT22;6277;49.824;9.562;2023-04-03T03:43:14;6.90;70.70
12426;DHT22;6277;49.824;9.562;2023-04-03T03:45:40;6.90;70.10
12426;DHT22;6277;49.824;9.562;2023-04-03T03:48:05;6.90;70.10
12426;DHT22;6277;49.824;9.562;2023-04-03T03:50:31;6.90;70.10
12426;DHT22;6277;49.824;9.562;2023-04-03T03:52:56;6.90;70.20
12426;DHT22;6277;49.824;9.562;2023-04-03T03:55:22;6.90;70.20
12426;DHT22;6277;49.824;9.562;2023-04-03T03:57:47;6.90;70.30
12426;DHT22;6277;49.824;9.562;2023-04-03T04:00:13;6.90;70.20
12426;DHT22;6277;49.824;9.562;2023-04-03T04:02:39;6.90;70.20
12426;DHT22;6277;49.824;9.562;2023-04-03T04:05:05;6.90;70.20
12426;DHT22;6277;49.824;9.562;2023-04-03T04:07:31;6.90;70.20
12426;DHT22;6277;49.824;9.562;2023-04-03T04:09:57;6.90;70.10
12426;DHT22;6277;49.824;9.562;2023-04-03T04:12:22;6.80;69.90
12426;DHT22;6277;49.824;9.562;2023-04-03T04:14:48;6.80;70.00
12426;DHT22;6277;49.824;9.562;2023-04-03T04:17:14;6.80;70.00
12426;DHT22;6277;49.824;9.562;2023-04-03T04:19:39;6.80;70.00
12426;DHT22;6277;49.824;9.562;2023-04-03T04:22:05;6.70;69.90
12426;DHT22;6277;49.824;9.562;2023-04-03T04:24:30;6.70;70.00
12426;DHT22;6277;49.824;9.562;2023-04-03T04:26:56;6.70;70.00
12426;DHT22;6277;49.824;9.562;2023-04-03T04:29:21;6.70;70.00
12426;DHT22;6277;49.824;9.562;2023-04-03T04:31:47;6.70;70.00
12426;DHT22;6277;49.824;9.562;2023-04-03T04:34:12;6.70;70.00
12426;DHT22;6277;49.824;9.562;2023-04-03T04:36:39;6.70;70.00
12426;DHT22;6277;49.824;9.562;2023-04-03T04:39:04;6.70;69.90
12426;DHT22;6277;49.824;9.562;2023-04-03T04:41:31;6.70;69.80
12426;DHT22;6277;49.824;9.562;2023-04-03T04:43:56;6.70;69.90
12426;DHT22;6277;49.824;9.562;2023-04-03T04:46:22;6.60;69.80
12426;DHT22;6277;49.824;9.562;2023-04-03T04:48:48;6.60;69.70
12426;DHT22;6277;49.824;9.562;2023-04-03T04:51:14;6.60;69.80
12426;DHT22;6277;49.824;9.562;2023-04-03T04:53:40;6.60;69.80
12426;DHT22;6277;49.824;9.562;2023-04-03T04:56:06;6.60;69.80
12426;DHT22;6277;49.824;9.562;2023-04-03T04:58:31;6.60;69.70
12426;DHT22;6277;49.824;9.562;2023-04-03T05:01:04;6.60;69.70
12426;DHT22;6277;49.824;9.562;2023-04-03T05:03:31;6.60;69.60
12426;DHT22;6277;49.824;9.562;2023-04-03T05:05:57;6.50;69.50
12426;DHT22;6277;49.824;9.562;2023-04-03T05:08:22;6.50;69.50
12426;DHT22;6277;49.824;9.562;2023-04-03T05:10:48;6.50;69.40
12426;DHT22;6277;49.824;9.562;2023-04-03T05:13:14;6.40;69.40
12426;DHT22;6277;49.824;9.562;2023-04-03T05:15:40;6.40;69.20
12426;DHT22;6277;49.824;9.562;2023-04-03T05:18:06;6.30;69.20
12426;DHT22;6277;49.824;9.562;2023-04-03T05:20:32;6.20;69.30
12426;DHT22;6277;49.824;9.562;2023-04-03T05:22:57;6.20;69.40
12426;DHT22;6277;49.824;9.562;2023-04-03T05:25:23;6.10;69.40
12426;DHT22;6277;49.824;9.562;2023-04-03T05:27:49;6.10;69.60
12426;DHT22;6277;49.824;9.562;2023-04-03T05:30:14;6.10;70.20
12426;DHT22;6277;49.824;9.562;2023-04-03T05:32:40;6.00;69.50
12426;DHT22;6277;49.824;9.562;2023-04-03T05:35:06;6.00;69.50
12426;DHT22;6277;49.824;9.562;2023-04-03T05:37:33;6.00;69.50
12426;DHT22;6277;49.824;9.562;2023-04-03T05:39:58;6.00;69.60
12426;DHT22;6277;49.824;9.562;2023-04-03T05:42:24;6.00;69.60
12426;DHT22;6277;49.824;9.562;2023-04-03T05:44:49;5.90;69.50
12426;DHT22;6277;49.824;9.562;2023-04-03T05:47:16;5.90;69.50
12426;DHT22;6277;49.824;9.562;2023-04-03T05:49:41;5.80;69.50
12426;DHT22;6277;49.824;9.562;2023-04-03T05:52:28;5.80;69.50
12426;DHT22;6277;49.824;9.562;2023-04-03T05:54:54;5.70;69.10
12426;DHT22;6277;49.824;9.562;2023-04-03T05:57:20;5.70;69.50
12426;DHT22;6277;49.824;9.562;2023-04-03T05:59:46;5.60;69.40
12426;DHT22;6277;49.824;9.562;2023-04-03T06:02:23;5.60;69.50
12426;DHT22;6277;49.824;9.562;2023-04-03T06:04:48;5.60;69.50
12426;DHT22;6277;49.824;9.562;2023-04-03T06:07:17;5.60;69.80
12426;DHT22;6277;49.824;9.562;2023-04-03T06:09:43;5.60;69.80
12426;DHT22;6277;49.824;9.562;2023-04-03T06:12:10;5.60;69.90
12426;DHT22;6277;49.824;9.562;2023-04-03T06:14:36;5.60;69.80
12426;DHT22;6277;49.824;9.562;2023-04-03T06:17:02;5.60;69.70
12426;DHT22;6277;49.824;9.562;2023-04-03T06:19:28;5.60;69.70
12426;DHT22;6277;49.824;9.562;2023-04-03T06:21:54;5.50;69.60
12426;DHT22;6277;49.824;9.562;2023-04-03T06:24:20;5.50;69.70
12426;DHT22;6277;49.824;9.562;2023-04-03T06:26:48;5.50;69.80
12426;DHT22;6277;49.824;9.562;2023-04-03T06:29:14;5.50;69.90
12426;DHT22;6277;49.824;9.562;2023-04-03T06:31:39;5.60;69.90
12426;DHT22;6277;49.824;9.562;2023-04-03T06:34:05;5.50;69.80
12426;DHT22;6277;49.824;9.562;2023-04-03T06:36:32;5.50;69.80
12426;DHT22;6277;49.824;9.562;2023-04-03T06:38:58;5.50;69.80
12426;DHT22;6277;49.824;9.562;2023-04-03T06:41:24;5.50;69.80
12426;DHT22;6277;49.824;9.562;2023-04-03T06:43:51;5.50;69.80
12426;DHT22;6277;49.824;9.562;2023-04-03T06:46:19;5.60;69.90
12426;DHT22;6277;49.824;9.562;2023-04-03T06:48:45;5.60;69.80
12426;DHT22;6277;49.824;9.562;2023-04-03T06:53:48;5.60;69.80
12426;DHT22;6277;49.824;9.562;2023-04-03T06:56:14;5.70;70.00
12426;DHT22;6277;49.824;9.562;2023-04-03T06:58:41;5.70;70.00
12426;DHT22;6277;49.824;9.562;2023-04-03T07:01:08;5.70;70.00
12426;DHT22;6277;49.824;9.562;2023-04-03T07:03:34;5.70;70.00
12426;DHT22;6277;49.824;9.562;2023-04-03T07:06:01;5.80;70.20
12426;DHT22;6277;49.824;9.562;2023-04-03T07:08:26;5.80;70.10
12426;DHT22;6277;49.824;9.562;2023-04-03T07:10:52;5.80;70.20
12426;DHT22;6277;49.824;9.562;2023-04-03T07:13:18;5.90;70.20
12426;DHT22;6277;49.824;9.562;2023-04-03T07:15:43;6.00;70.20
12426;DHT22;6277;49.824;9.562;2023-04-03T07:18:09;6.00;70.20
12426;DHT22;6277;49.824;9.562;2023-04-03T07:20:35;6.00;70.10
12426;DHT22;6277;49.824;9.562;2023-04-03T07:23:00;6.10;70.10
12426;DHT22;6277;49.824;9.562;2023-04-03T07:25:27;6.10;70.10
12426;DHT22;6277;49.824;9.562;2023-04-03T07:27:53;6.20;70.10
12426;DHT22;6277;49.824;9.562;2023-04-03T07:30:20;6.20;70.00
12426;DHT22;6277;49.824;9.562;2023-04-03T07:32:45;6.30;70.00
12426;DHT22;6277;49.824;9.562;2023-04-03T07:35:11;6.30;69.80
12426;DHT22;6277;49.824;9.562;2023-04-03T07:37:37;6.40;69.90
12426;DHT22;6277;49.824;9.562;2023-04-03T07:40:03;6.40;69.80
12426;DHT22;6277;49.824;9.562;2023-04-03T07:42:29;6.50;69.80
12426;DHT22;6277;49.824;9.562;2023-04-03T07:44:55;6.50;69.80
12426;DHT22;6277;49.824;9.562;2023-04-03T07:47:21;6.60;69.90
12426;DHT22;6277;49.824;9.562;2023-04-03T07:49:47;6.60;69.80
12426;DHT22;6277;49.824;9.562;2023-04-03T07:52:13;6.70;69.70
12426;DHT22;6277;49.824;9.562;2023-04-03T07:54:41;6.80;69.70
12426;DHT22;6277;49.824;9.562;2023-04-03T07:57:07;6.80;69.50
12426;DHT22;6277;49.824;9.562;2023-04-03T07:59:33;6.90;69.00
12426;DHT22;6277;49.824;9.562;2023-04-03T08:01:58;6.90;69.00
12426;DHT22;6277;49.824;9.562;2023-04-03T08:04:24;6.90;68.80
12426;DHT22;6277;49.824;9.562;2023-04-03T08:06:51;6.90;68.90
12426;DHT22;6277;49.824;9.562;2023-04-03T08:09:17;6.90;68.80
12426;DHT22;6277;49.824;9.562;2023-04-03T08:11:44;7.00;69.00
12426;DHT22;6277;49.824;9.562;2023-04-03T08:14:09;7.00;69.10
12426;DHT22;6277;49.824;9.562;2023-04-03T08:16:41;7.00;69.10
12426;DHT22;6277;49.824;9.562;2023-04-03T08:19:06;7.10;69.10
12426;DHT22;6277;49.824;9.562;2023-04-03T08:21:33;7.10;69.10
12426;DHT22;6277;49.824;9.562;2023-04-03T08:23:58;7.20;69.20
12426;DHT22;6277;49.824;9.562;2023-04-03T08:26:24;7.30;69.40
12426;DHT22;6277;49.824;9.562;2023-04-03T08:28:51;7.40;69.60
12426;DHT22;6277;49.824;9.562;2023-04-03T08:31:18;7.50;69.60
12426;DHT22;6277;49.824;9.562;2023-04-03T08:33:44;7.70;69.20
12426;DHT22;6277;49.824;9.562;2023-04-03T08:36:24;7.80;69.50
12426;DHT22;6277;49.824;9.562;2023-04-03T08:38:52;8.00;68.50
12426;DHT22;6277;49.824;9.562;2023-04-03T08:41:29;8.10;69.30
12426;DHT22;6277;49.824;9.562;2023-04-03T08:44:25;8.20;68.70
12426;DHT22;6277;49.824;9.562;2023-04-03T08:49:47;8.50;68.10
12426;DHT22;6277;49.824;9.562;2023-04-03T08:52:39;8.70;69.10
12426;DHT22;6277;49.824;9.562;2023-04-03T08:55:34;8.80;68.20
12426;DHT22;6277;49.824;9.562;2023-04-03T08:58:06;8.90;67.40
12426;DHT22;6277;49.824;9.562;2023-04-03T09:00:43;9.00;67.90
12426;DHT22;6277;49.824;9.562;2023-04-03T09:03:15;9.10;67.30
12426;DHT22;6277;49.824;9.562;2023-04-03T09:05:55;9.20;67.70
12426;DHT22;6277;49.824;9.562;2023-04-03T09:08:26;9.30;67.20
12426;DHT22;6277;49.824;9.562;2023-04-03T09:16:28;9.40;66.90
12426;DHT22;6277;49.824;9.562;2023-04-03T09:21:42;9.40;65.50
12426;DHT22;6277;49.824;9.562;2023-04-03T09:24:11;9.40;66.90
12426;DHT22;6277;49.824;9.562;2023-04-03T09:26:57;9.40;66.80
12426;DHT22;6277;49.824;9.562;2023-04-03T09:29:25;9.50;66.10
12426;DHT22;6277;49.824;9.562;2023-04-03T09:32:02;9.60;67.70
12426;DHT22;6277;49.824;9.562;2023-04-03T09:34:32;9.80;66.30
12426;DHT22;6277;49.824;9.562;2023-04-03T09:37:02;9.90;66.40
12426;DHT22;6277;49.824;9.562;2023-04-03T09:39:32;10.00;65.80
12426;DHT22;6277;49.824;9.562;2023-04-03T09:42:21;10.00;66.50
12426;DHT22;6277;49.824;9.562;2023-04-03T09:44:58;10.00;65.00
12426;DHT22;6277;49.824;9.562;2023-04-03T09:50:21;10.00;64.20
12426;DHT22;6277;49.824;9.562;2023-04-03T09:52:49;10.00;64.30
12426;DHT22;6277;49.824;9.562;2023-04-03T09:55:17;10.00;66.00
12426;DHT22;6277;49.824;9.562;2023-04-03T09:57:45;10.10;66.60
12426;DHT22;6277;49.824;9.562;2023-04-03T10:00:36;10.30;66.50
12426;DHT22;6277;49.824;9.562;2023-04-03T10:03:03;10.50;65.50
12426;DHT22;6277;49.824;9.562;2023-04-03T10:05:38;10.60;66.30
12426;DHT22;6277;49.824;9.562;2023-04-03T10:08:26;10.80;64.20
12426;DHT22;6277;49.824;9.562;2023-04-03T10:11:17;10.90;63.40
12426;DHT22;6277;49.824;9.562;2023-04-03T10:14:15;11.00;63.50
12426;DHT22;6277;49.824;9.562;2023-04-03T10:16:48;11.10;64.10
12426;DHT22;6277;49.824;9.562;2023-04-03T10:22:04;11.30;65.90
12426;DHT22;6277;49.824;9.562;2023-04-03T10:24:51;11.50;64.30
12426;DHT22;6277;49.824;9.562;2023-04-03T10:30:34;11.70;63.10
12426;DHT22;6277;49.824;9.562;2023-04-03T10:33:20;11.90;62.70
12426;DHT22;6277;49.824;9.562;2023-04-03T10:38:43;11.80;62.40
12426;DHT22;6277;49.824;9.562;2023-04-03T10:42:07;11.80;62.40
12426;DHT22;6277;49.824;9.562;2023-04-03T10:44:41;11.80;62.50
12426;DHT22;6277;49.824;9.562;2023-04-03T10:50:26;11.90;62.60
12426;DHT22;6277;49.824;9.562;2023-04-03T10:53:01;12.10;62.80
12426;DHT22;6277;49.824;9.562;2023-04-03T10:55:42;12.10;62.50
12426;DHT22;6277;49.824;9.562;2023-04-03T10:58:19;12.10;62.00
12426;DHT22;6277;49.824;9.562;2023-04-03T11:00:49;12.10;61.50
12426;DHT22;6277;49.824;9.562;2023-04-03T11:03:17;12.00;61.50
12426;DHT22;6277;49.824;9.562;2023-04-03T11:05:51;11.90;61.90
12426;DHT22;6277;49.824;9.562;2023-04-03T11:08:39;11.90;61.90
12426;DHT22;6277;49.824;9.562;2023-04-03T11:11:24;11.80;59.50
12426;DHT22;6277;49.824;9.562;2023-04-03T11:13:59;11.70;59.90
12426;DHT22;6277;49.824;9.562;2023-04-03T11:16:28;11.60;60.90
12426;DHT22;6277;49.824;9.562;2023-04-03T11:19:05;11.50;60.60
12426;DHT22;6277;49.824;9.562;2023-04-03T11:21:41;11.40;59.50
12426;DHT22;6277;49.824;9.562;2023-04-03T11:24:17;11.20;59.00
12426;DHT22;6277;49.824;9.562;2023-04-03T11:26:46;11.00;59.50
12426;DHT22;6277;49.824;9.562;2023-04-03T11:29:19;10.90;60.20
12426;DHT22;6277;49.824;9.562;2023-04-03T11:32:11;10.80;59.80
12426;DHT22;6277;49.824;9.562;2023-04-03T11:34:46;10.70;59.20
12426;DHT22;6277;49.824;9.562;2023-04-03T11:37:25;10.60;59.90
12426;DHT22;6277;49.824;9.562;2023-04-03T11:40:22;10.50;59.80
12426;DHT22;6277;49.824;9.562;2023-04-03T11:42:52;10.50;59.00
12426;DHT22;6277;49.824;9.562;2023-04-03T11:47:56;10.50;60.50
12426;DHT22;6277;49.824;9.562;2023-04-03T12:37:43;12.30;57.60
12426;DHT22;6277;49.824;9.562;2023-04-03T12:42:56;12.20;58.60
12426;DHT22;6277;49.824;9.562;2023-04-03T12:45:26;12.10;57.40
12426;DHT22;6277;49.824;9.562;2023-04-03T12:47:54;12.00;58.60
12426;DHT22;6277;49.824;9.562;2023-04-03T12:50:24;11.90;58.30
12426;DHT22;6277;49.824;9.562;2023-04-03T12:53:15;11.90;58.00
12426;DHT22;6277;49.824;9.562;2023-04-03T12:55:42;11.80;54.70
12426;DHT22;6277;49.824;9.562;2023-04-03T12:58:16;11.70;56.80
12426;DHT22;6277;49.824;9.562;2023-04-03T13:00:45;11.70;56.70
12426;DHT22;6277;49.824;9.562;2023-04-03T13:03:24;11.60;57.70
12426;DHT22;6277;49.824;9.562;2023-04-03T13:05:54;11.50;56.70
12426;DHT22;6277;49.824;9.562;2023-04-03T13:08:20;11.50;57.90
12426;DHT22;6277;49.824;9.562;2023-04-03T13:10:58;11.50;58.30
12426;DHT22;6277;49.824;9.562;2023-04-03T13:13:25;11.50;57.90
12426;DHT22;6277;49.824;9.562;2023-04-03T13:15:52;11.60;58.40
12426;DHT22;6277;49.824;9.562;2023-04-03T13:20:48;11.60;57.40
12426;DHT22;6277;49.824;9.562;2023-04-03T13:23:17;11.60;57.80
12426;DHT22;6277;49.824;9.562;2023-04-03T13:25:46;11.60;57.50
12426;DHT22;6277;49.824;9.562;2023-04-03T13:28:15;11.60;58.00
12426;DHT22;6277;49.824;9.562;2023-04-03T13:30:55;11.70;57.80
12426;DHT22;6277;49.824;9.562;2023-04-03T13:33:27;11.70;56.70
12426;DHT22;6277;49.824;9.562;2023-04-03T13:36:20;11.70;57.70
12426;DHT22;6277;49.824;9.562;2023-04-03T13:39:00;11.70;55.80
12426;DHT22;6277;49.824;9.562;2023-04-03T13:41:33;11.70;56.60
12426;DHT22;6277;49.824;9.562;2023-04-03T13:46:51;11.80;55.60
12426;DHT22;6277;49.824;9.562;2023-04-03T13:49:38;11.80;57.60
12426;DHT22;6277;49.824;9.562;2023-04-03T13:52:28;11.90;56.40
12426;DHT22;6277;49.824;9.562;2023-04-03T13:54:57;12.00;56.50
12426;DHT22;6277;49.824;9.562;2023-04-03T13:57:24;12.10;57.50
12426;DHT22;6277;49.824;9.562;2023-04-03T13:59:50;12.10;57.60
12426;DHT22;6277;49.824;9.562;2023-04-03T14:02:32;12.20;57.40
12426;DHT22;6277;49.824;9.562;2023-04-03T14:05:00;12.20;56.30
12426;DHT22;6277;49.824;9.562;2023-04-03T14:07:27;12.30;57.30
12426;DHT22;6277;49.824;9.562;2023-04-03T14:09:53;12.30;57.50
12426;DHT22;6277;49.824;9.562;2023-04-03T14:12:31;12.50;57.60
12426;DHT22;6277;49.824;9.562;2023-04-03T14:15:00;12.60;55.90
12426;DHT22;6277;49.824;9.562;2023-04-03T14:17:26;12.70;57.30
12426;DHT22;6277;49.824;9.562;2023-04-03T14:19:53;12.80;57.30
12426;DHT22;6277;49.824;9.562;2023-04-03T14:22:22;13.00;57.20
12426;DHT22;6277;49.824;9.562;2023-04-03T14:24:50;13.10;56.60
12426;DHT22;6277;49.824;9.562;2023-04-03T14:27:27;13.30;56.50
12426;DHT22;6277;49.824;9.562;2023-04-03T14:29:55;13.30;54.10
12426;DHT22;6277;49.824;9.562;2023-04-03T14:32:22;13.40;56.10
12426;DHT22;6277;49.824;9.562;2023-04-03T14:34:50;13.40;55.30
12426;DHT22;6277;49.824;9.562;2023-04-03T14:37:22;13.50;55.40
12426;DHT22;6277;49.824;9.562;2023-04-03T14:39:48;13.50;55.10
12426;DHT22;6277;49.824;9.562;2023-04-03T14:42:17;13.50;56.10
12426;DHT22;6277;49.824;9.562;2023-04-03T14:44:43;13.60;56.50
12426;DHT22;6277;49.824;9.562;2023-04-03T14:47:15;13.70;56.20
12426;DHT22;6277;49.824;9.562;2023-04-03T14:49:42;13.90;55.60
12426;DHT22;6277;49.824;9.562;2023-04-03T14:52:18;14.00;55.90
12426;DHT22;6277;49.824;9.562;2023-04-03T14:54:44;14.10;54.80
12426;DHT22;6277;49.824;9.562;2023-04-03T14:57:12;14.20;55.90
12426;DHT22;6277;49.824;9.562;2023-04-03T14:59:39;14.30;55.00
12426;DHT22;6277;49.824;9.562;2023-04-03T15:02:28;14.40;55.40
12426;DHT22;6277;49.824;9.562;2023-04-03T15:04:55;14.50;53.70
12426;DHT22;6277;49.824;9.562;2023-04-03T15:07:21;14.50;55.00
12426;DHT22;6277;49.824;9.562;2023-04-03T15:09:47;14.50;54.90
12426;DHT22;6277;49.824;9.562;2023-04-03T15:12:13;14.50;54.90
12426;DHT22;6277;49.824;9.562;2023-04-03T15:14:39;14.60;54.60
12426;DHT22;6277;49.824;9.562;2023-04-03T15:17:05;14.60;54.50
12426;DHT22;6277;49.824;9.562;2023-04-03T15:19:37;14.60;54.60
12426;DHT22;6277;49.824;9.562;2023-04-03T15:22:03;14.70;53.90
12426;DHT22;6277;49.824;9.562;2023-04-03T15:24:29;14.80;54.80
12426;DHT22;6277;49.824;9.562;2023-04-03T15:26:54;14.80;54.80
12426;DHT22;6277;49.824;9.562;2023-04-03T15:29:20;14.90;54.30
12426;DHT22;6277;49.824;9.562;2023-04-03T15:31:46;15.10;54.60
12426;DHT22;6277;49.824;9.562;2023-04-03T15:34:11;15.10;54.30
12426;DHT22;6277;49.824;9.562;2023-04-03T15:36:37;15.20;54.10
12426;DHT22;6277;49.824;9.562;2023-04-03T15:39:02;15.30;53.60
12426;DHT22;6277;49.824;9.562;2023-04-03T15:41:28;15.30;54.10
12426;DHT22;6277;49.824;9.562;2023-04-03T15:43:53;15.40;54.40
12426;DHT22;6277;49.824;9.562;2023-04-03T15:46:19;15.50;54.10
12426;DHT22;6277;49.824;9.562;2023-04-03T15:48:45;15.60;54.10
12426;DHT22;6277;49.824;9.562;2023-04-03T15:51:10;15.80;54.10
12426;DHT22;6277;49.824;9.562;2023-04-03T15:53:36;15.90;53.60
12426;DHT22;6277;49.824;9.562;2023-04-03T15:56:01;15.90;52.90
12426;DHT22;6277;49.824;9.562;2023-04-03T15:58:27;15.90;53.00
12426;DHT22;6277;49.824;9.562;2023-04-03T16:00:53;16.00;53.50
12426;DHT22;6277;49.824;9.562;2023-04-03T16:03:20;16.10;53.00
12426;DHT22;6277;49.824;9.562;2023-04-03T16:05:47;16.20;52.80
12426;DHT22;6277;49.824;9.562;2023-04-03T16:08:13;16.30;53.10
12426;DHT22;6277;49.824;9.562;2023-04-03T16:10:39;16.50;52.70
12426;DHT22;6277;49.824;9.562;2023-04-03T16:13:06;16.60;51.70
12426;DHT22;6277;49.824;9.562;2023-04-03T16:15:32;16.50;51.10
12426;DHT22;6277;49.824;9.562;2023-04-03T16:17:59;16.30;50.50
12426;DHT22;6277;49.824;9.562;2023-04-03T16:20:25;16.10;50.20
12426;DHT22;6277;49.824;9.562;2023-04-03T16:22:51;15.80;50.50
12426;DHT22;6277;49.824;9.562;2023-04-03T16:25:17;15.50;50.40
12426;DHT22;6277;49.824;9.562;2023-04-03T16:27:43;15.30;51.10
12426;DHT22;6277;49.824;9.562;2023-04-03T16:30:09;15.30;51.20
12426;DHT22;6277;49.824;9.562;2023-04-03T16:32:36;15.20;51.60
12426;DHT22;6277;49.824;9.562;2023-04-03T16:35:02;15.20;51.40
12426;DHT22;6277;49.824;9.562;2023-04-03T16:37:27;15.10;51.10
12426;DHT22;6277;49.824;9.562;2023-04-03T16:39:53;15.10;51.30
12426;DHT22;6277;49.824;9.562;2023-04-03T16:42:19;15.10;51.70
12426;DHT22;6277;49.824;9.562;2023-04-03T16:44:44;15.10;52.00
12426;DHT22;6277;49.824;9.562;2023-04-03T16:47:10;15.20;52.10
12426;DHT22;6277;49.824;9.562;2023-04-03T16:49:38;15.40;52.50
12426;DHT22;6277;49.824;9.562;2023-04-03T16:52:04;15.50;52.00
12426;DHT22;6277;49.824;9.562;2023-04-03T16:54:30;15.60;51.60
12426;DHT22;6277;49.824;9.562;2023-04-03T16:56:56;15.70;51.50
12426;DHT22;6277;49.824;9.562;2023-04-03T16:59:22;15.80;51.30
12426;DHT22;6277;49.824;9.562;2023-04-03T17:01:48;15.80;51.30
12426;DHT22;6277;49.824;9.562;2023-04-03T17:04:13;15.80;50.90
12426;DHT22;6277;49.824;9.562;2023-04-03T17:06:39;15.70;50.70
12426;DHT22;6277;49.824;9.562;2023-04-03T17:09:06;15.60;50.40
12426;DHT22;6277;49.824;9.562;2023-04-03T17:11:32;15.40;50.00
12426;DHT22;6277;49.824;9.562;2023-04-03T17:13:58;15.20;49.50
12426;DHT22;6277;49.824;9.562;2023-04-03T17:16:24;14.90;48.90
12426;DHT22;6277;49.824;9.562;2023-04-03T17:18:50;14.50;48.70
12426;DHT22;6277;49.824;9.562;2023-04-03T17:21:17;14.10;48.50
12426;DHT22;6277;49.824;9.562;2023-04-03T17:23:44;13.70;48.90
12426;DHT22;6277;49.824;9.562;2023-04-03T17:26:11;13.30;49.00
12426;DHT22;6277;49.824;9.562;2023-04-03T17:28:37;12.90;49.10
12426;DHT22;6277;49.824;9.562;2023-04-03T17:31:05;12.60;48.90
12426;DHT22;6277;49.824;9.562;2023-04-03T17:33:31;12.20;49.20